Terminal Aerodrome Forecast
Issued by NWS

Home | Current Version | Previous Version | Text Only | Print | Product List | Glossary On
Versions: 1 2 3 4 5 6 7 8 9 10 11 12 13 14 15 16 17 18 19 20
000
FTUS43 KDVN 282139 AAC
TAFCID
TAF AMD
KCID 282139Z 2822/2918 23007KT P6SM -RA VCTS BKN030 BKN070CB
      TEMPO 2822/2824 3SM TSRA BR BKN018CB
     FM290400 19008KT P6SM VCSH BKN030
     FM290700 30008KT P6SM SCT250=

USA.gov is the U.S. government's official web portal to all federal, state and local government web resources and services.